sensor_id;sensor_type;location;lat;lon;timestamp;temperature;humidity
22108;DHT22;11220;48.812;9.128;2023-04-27T00:00:35;18.60;72.70
22108;DHT22;11220;48.812;9.128;2023-04-27T00:03:01;18.50;72.70
22108;DHT22;11220;48.812;9.128;2023-04-27T00:05:36;18.50;72.60
22108;DHT22;11220;48.812;9.128;2023-04-27T00:08:04;18.50;72.70
22108;DHT22;11220;48.812;9.128;2023-04-27T00:10:30;18.50;72.70
22108;DHT22;11220;48.812;9.128;2023-04-27T00:12:55;18.50;72.70
22108;DHT22;11220;48.812;9.128;2023-04-27T00:15:21;18.50;72.70
22108;DHT22;11220;48.812;9.128;2023-04-27T00:17:46;18.50;72.80
22108;DHT22;11220;48.812;9.128;2023-04-27T00:20:12;18.50;72.80
22108;DHT22;11220;48.812;9.128;2023-04-27T00:22:38;18.50;72.80
22108;DHT22;11220;48.812;9.128;2023-04-27T00:25:05;18.50;72.80
22108;DHT22;11220;48.812;9.128;2023-04-27T00:27:31;18.50;72.80
22108;DHT22;11220;48.812;9.128;2023-04-27T00:29:56;18.50;72.80
22108;DHT22;11220;48.812;9.128;2023-04-27T00:32:22;18.50;72.90
22108;DHT22;11220;48.812;9.128;2023-04-27T00:34:47;18.40;72.90
22108;DHT22;11220;48.812;9.128;2023-04-27T00:37:13;18.50;72.90
22108;DHT22;11220;48.812;9.128;2023-04-27T00:39:38;18.40;72.90
22108;DHT22;11220;48.812;9.128;2023-04-27T00:42:04;18.40;72.90
22108;DHT22;11220;48.812;9.128;2023-04-27T00:44:30;18.40;73.20
22108;DHT22;11220;48.812;9.128;2023-04-27T00:46:57;18.40;72.90
22108;DHT22;11220;48.812;9.128;2023-04-27T00:49:24;18.40;72.90
22108;DHT22;11220;48.812;9.128;2023-04-27T00:51:51;18.40;73.00
22108;DHT22;11220;48.812;9.128;2023-04-27T00:54:19;18.40;73.00
22108;DHT22;11220;48.812;9.128;2023-04-27T00:56:49;18.40;73.00
22108;DHT22;11220;48.812;9.128;2023-04-27T00:59:16;18.40;73.00
22108;DHT22;11220;48.812;9.128;2023-04-27T01:01:42;18.40;73.00
22108;DHT22;11220;48.812;9.128;2023-04-27T01:04:09;18.40;73.10
22108;DHT22;11220;48.812;9.128;2023-04-27T01:06:34;18.40;73.00
22108;DHT22;11220;48.812;9.128;2023-04-27T01:09:00;18.40;73.00
22108;DHT22;11220;48.812;9.128;2023-04-27T01:11:25;18.40;73.10
22108;DHT22;11220;48.812;9.128;2023-04-27T01:13:51;18.40;73.10
22108;DHT22;11220;48.812;9.128;2023-04-27T01:16:18;18.30;73.10
22108;DHT22;11220;48.812;9.128;2023-04-27T01:18:43;18.30;73.10
22108;DHT22;11220;48.812;9.128;2023-04-27T01:21:09;18.30;73.10
22108;DHT22;11220;48.812;9.128;2023-04-27T01:23:35;18.30;73.10
22108;DHT22;11220;48.812;9.128;2023-04-27T01:26:01;18.30;73.10
22108;DHT22;11220;48.812;9.128;2023-04-27T01:28:26;18.30;73.20
22108;DHT22;11220;48.812;9.128;2023-04-27T01:30:52;18.30;73.20
22108;DHT22;11220;48.812;9.128;2023-04-27T01:33:17;18.30;73.20
22108;DHT22;11220;48.812;9.128;2023-04-27T01:35:43;18.30;73.20
22108;DHT22;11220;48.812;9.128;2023-04-27T01:38:08;18.30;73.20
22108;DHT22;11220;48.812;9.128;2023-04-27T01:40:34;18.30;73.20
22108;DHT22;11220;48.812;9.128;2023-04-27T01:42:59;18.30;73.20
22108;DHT22;11220;48.812;9.128;2023-04-27T01:45:25;18.30;73.20
22108;DHT22;11220;48.812;9.128;2023-04-27T01:47:51;18.30;73.20
22108;DHT22;11220;48.812;9.128;2023-04-27T01:50:17;18.30;73.20
22108;DHT22;11220;48.812;9.128;2023-04-27T01:52:42;18.20;73.20
22108;DHT22;11220;48.812;9.128;2023-04-27T01:55:08;18.30;73.30
22108;DHT22;11220;48.812;9.128;2023-04-27T01:57:34;18.20;73.20
22108;DHT22;11220;48.812;9.128;2023-04-27T01:59:59;18.20;73.30
22108;DHT22;11220;48.812;9.128;2023-04-27T02:02:25;18.20;73.20
22108;DHT22;11220;48.812;9.128;2023-04-27T02:04:50;18.20;73.30
22108;DHT22;11220;48.812;9.128;2023-04-27T02:07:16;18.20;73.30
22108;DHT22;11220;48.812;9.128;2023-04-27T02:09:41;18.20;73.30
22108;DHT22;11220;48.812;9.128;2023-04-27T02:12:07;18.20;73.30
22108;DHT22;11220;48.812;9.128;2023-04-27T02:14:32;18.20;73.30
22108;DHT22;11220;48.812;9.128;2023-04-27T02:16:58;18.20;73.30
22108;DHT22;11220;48.812;9.128;2023-04-27T02:19:23;18.20;73.40
22108;DHT22;11220;48.812;9.128;2023-04-27T02:21:49;18.20;73.40
22108;DHT22;11220;48.812;9.128;2023-04-27T02:24:15;18.20;73.40
22108;DHT22;11220;48.812;9.128;2023-04-27T02:26:40;18.20;73.40
22108;DHT22;11220;48.812;9.128;2023-04-27T02:29:06;18.20;73.40
22108;DHT22;11220;48.812;9.128;2023-04-27T02:31:31;18.10;73.30
22108;DHT22;11220;48.812;9.128;2023-04-27T02:33:57;18.20;73.40
22108;DHT22;11220;48.812;9.128;2023-04-27T02:36:22;18.10;73.30
22108;DHT22;11220;48.812;9.128;2023-04-27T02:38:48;18.20;73.40
22108;DHT22;11220;48.812;9.128;2023-04-27T02:41:13;18.10;73.40
22108;DHT22;11220;48.812;9.128;2023-04-27T02:43:39;18.10;73.40
22108;DHT22;11220;48.812;9.128;2023-04-27T02:46:05;18.10;73.50
22108;DHT22;11220;48.812;9.128;2023-04-27T02:48:30;18.10;73.40
22108;DHT22;11220;48.812;9.128;2023-04-27T02:50:56;18.10;73.50
22108;DHT22;11220;48.812;9.128;2023-04-27T02:53:22;18.10;73.50
22108;DHT22;11220;48.812;9.128;2023-04-27T02:55:49;18.10;73.50
22108;DHT22;11220;48.812;9.128;2023-04-27T02:58:15;18.10;73.50
22108;DHT22;11220;48.812;9.128;2023-04-27T03:00:41;18.10;73.50
22108;DHT22;11220;48.812;9.128;2023-04-27T03:03:07;18.10;73.50
22108;DHT22;11220;48.812;9.128;2023-04-27T03:05:34;18.10;73.50
22108;DHT22;11220;48.812;9.128;2023-04-27T03:08:00;18.10;73.50
22108;DHT22;11220;48.812;9.128;2023-04-27T03:10:25;18.10;73.50
22108;DHT22;11220;48.812;9.128;2023-04-27T03:12:51;18.10;73.60
22108;DHT22;11220;48.812;9.128;2023-04-27T03:15:16;18.00;73.50
22108;DHT22;11220;48.812;9.128;2023-04-27T03:17:42;18.10;73.60
22108;DHT22;11220;48.812;9.128;2023-04-27T03:20:08;18.10;73.60
22108;DHT22;11220;48.812;9.128;2023-04-27T03:22:35;18.10;73.60
22108;DHT22;11220;48.812;9.128;2023-04-27T03:25:01;18.00;73.60
22108;DHT22;11220;48.812;9.128;2023-04-27T03:27:27;18.10;73.60
22108;DHT22;11220;48.812;9.128;2023-04-27T03:29:53;18.00;73.60
22108;DHT22;11220;48.812;9.128;2023-04-27T03:32:18;18.00;73.60
22108;DHT22;11220;48.812;9.128;2023-04-27T03:34:44;18.00;73.60
22108;DHT22;11220;48.812;9.128;2023-04-27T03:37:09;18.00;73.60
22108;DHT22;11220;48.812;9.128;2023-04-27T03:39:35;18.00;73.60
22108;DHT22;11220;48.812;9.128;2023-04-27T03:42:00;18.00;73.60
22108;DHT22;11220;48.812;9.128;2023-04-27T03:44:27;18.00;73.60
22108;DHT22;11220;48.812;9.128;2023-04-27T03:46:52;18.00;73.60
22108;DHT22;11220;48.812;9.128;2023-04-27T03:49:18;18.00;73.60
22108;DHT22;11220;48.812;9.128;2023-04-27T03:51:43;18.00;73.60
22108;DHT22;11220;48.812;9.128;2023-04-27T03:54:08;18.00;73.60
22108;DHT22;11220;48.812;9.128;2023-04-27T03:56:34;18.00;73.70
22108;DHT22;11220;48.812;9.128;2023-04-27T03:59:02;18.00;73.70
22108;DHT22;11220;48.812;9.128;2023-04-27T04:01:27;18.00;73.70
22108;DHT22;11220;48.812;9.128;2023-04-27T04:03:53;17.90;73.60
22108;DHT22;11220;48.812;9.128;2023-04-27T04:06:18;18.00;73.70
22108;DHT22;11220;48.812;9.128;2023-04-27T04:08:44;18.00;73.70
22108;DHT22;11220;48.812;9.128;2023-04-27T04:11:09;18.00;73.70
22108;DHT22;11220;48.812;9.128;2023-04-27T04:13:35;18.00;73.70
22108;DHT22;11220;48.812;9.128;2023-04-27T04:18:27;18.00;73.70
22108;DHT22;11220;48.812;9.128;2023-04-27T04:20:52;17.90;73.70
22108;DHT22;11220;48.812;9.128;2023-04-27T04:23:17;18.00;73.80
22108;DHT22;11220;48.812;9.128;2023-04-27T04:25:44;17.90;73.70
22108;DHT22;11220;48.812;9.128;2023-04-27T04:28:12;17.90;73.70
22108;DHT22;11220;48.812;9.128;2023-04-27T04:30:37;17.90;73.70
22108;DHT22;11220;48.812;9.128;2023-04-27T04:33:04;17.90;73.70
22108;DHT22;11220;48.812;9.128;2023-04-27T04:35:29;17.90;73.70
22108;DHT22;11220;48.812;9.128;2023-04-27T04:37:57;17.90;73.80
22108;DHT22;11220;48.812;9.128;2023-04-27T04:40:23;17.90;73.80
22108;DHT22;11220;48.812;9.128;2023-04-27T04:42:49;17.90;73.80
22108;DHT22;11220;48.812;9.128;2023-04-27T04:45:14;17.90;73.80
22108;DHT22;11220;48.812;9.128;2023-04-27T04:47:40;17.90;73.70
22108;DHT22;11220;48.812;9.128;2023-04-27T04:50:06;17.90;73.80
22108;DHT22;11220;48.812;9.128;2023-04-27T04:52:33;17.90;73.80
22108;DHT22;11220;48.812;9.128;2023-04-27T04:54:58;17.90;74.60
22108;DHT22;11220;48.812;9.128;2023-04-27T04:57:24;17.90;73.70
22108;DHT22;11220;48.812;9.128;2023-04-27T04:59:49;17.90;73.60
22108;DHT22;11220;48.812;9.128;2023-04-27T05:02:15;17.90;73.60
22108;DHT22;11220;48.812;9.128;2023-04-27T05:04:41;17.90;73.60
22108;DHT22;11220;48.812;9.128;2023-04-27T05:07:06;18.00;73.60
22108;DHT22;11220;48.812;9.128;2023-04-27T05:09:32;18.00;73.70
22108;DHT22;11220;48.812;9.128;2023-04-27T05:11:57;18.00;73.60
22108;DHT22;11220;48.812;9.128;2023-04-27T05:14:23;18.00;73.60
22108;DHT22;11220;48.812;9.128;2023-04-27T05:16:49;18.00;73.60
22108;DHT22;11220;48.812;9.128;2023-04-27T05:19:15;18.00;73.60
22108;DHT22;11220;48.812;9.128;2023-04-27T05:21:43;18.00;73.60
22108;DHT22;11220;48.812;9.128;2023-04-27T05:24:10;18.10;73.50
22108;DHT22;11220;48.812;9.128;2023-04-27T05:26:35;18.10;73.50
22108;DHT22;11220;48.812;9.128;2023-04-27T05:29:01;18.10;73.50
22108;DHT22;11220;48.812;9.128;2023-04-27T05:31:26;18.10;73.50
22108;DHT22;11220;48.812;9.128;2023-04-27T05:33:52;18.10;73.40
22108;DHT22;11220;48.812;9.128;2023-04-27T05:36:17;18.10;73.40
22108;DHT22;11220;48.812;9.128;2023-04-27T05:38:43;18.10;73.40
22108;DHT22;11220;48.812;9.128;2023-04-27T05:41:08;18.10;73.40
22108;DHT22;11220;48.812;9.128;2023-04-27T05:43:34;18.20;73.40
22108;DHT22;11220;48.812;9.128;2023-04-27T05:46:01;18.20;73.40
22108;DHT22;11220;48.812;9.128;2023-04-27T05:48:27;18.20;73.40
22108;DHT22;11220;48.812;9.128;2023-04-27T05:50:59;18.20;73.40
22108;DHT22;11220;48.812;9.128;2023-04-27T05:53:26;18.30;73.60
22108;DHT22;11220;48.812;9.128;2023-04-27T05:55:51;18.30;73.70
22108;DHT22;11220;48.812;9.128;2023-04-27T05:58:17;18.30;73.70
22108;DHT22;11220;48.812;9.128;2023-04-27T06:00:42;18.30;73.80
22108;DHT22;11220;48.812;9.128;2023-04-27T06:03:08;18.30;73.90
22108;DHT22;11220;48.812;9.128;2023-04-27T06:05:33;18.30;73.90
22108;DHT22;11220;48.812;9.128;2023-04-27T06:07:59;18.30;73.90
22108;DHT22;11220;48.812;9.128;2023-04-27T06:10:24;18.30;74.10
22108;DHT22;11220;48.812;9.128;2023-04-27T06:12:50;18.40;74.10
22108;DHT22;11220;48.812;9.128;2023-04-27T06:15:15;18.40;74.10
22108;DHT22;11220;48.812;9.128;2023-04-27T06:17:41;18.40;74.10
22108;DHT22;11220;48.812;9.128;2023-04-27T06:20:08;18.40;74.20
22108;DHT22;11220;48.812;9.128;2023-04-27T06:22:35;18.40;74.20
22108;DHT22;11220;48.812;9.128;2023-04-27T06:25:06;18.40;74.30
22108;DHT22;11220;48.812;9.128;2023-04-27T06:27:32;18.40;74.20
22108;DHT22;11220;48.812;9.128;2023-04-27T06:29:58;18.40;74.30
22108;DHT22;11220;48.812;9.128;2023-04-27T06:32:24;18.40;74.30
22108;DHT22;11220;48.812;9.128;2023-04-27T06:34:49;18.40;74.30
22108;DHT22;11220;48.812;9.128;2023-04-27T06:37:15;18.50;74.30
22108;DHT22;11220;48.812;9.128;2023-04-27T06:39:42;18.50;75.30
22108;DHT22;11220;48.812;9.128;2023-04-27T06:42:08;18.50;74.30
22108;DHT22;11220;48.812;9.128;2023-04-27T06:44:33;18.50;74.30
22108;DHT22;11220;48.812;9.128;2023-04-27T06:46:59;18.50;74.30
22108;DHT22;11220;48.812;9.128;2023-04-27T06:49:25;18.50;74.30
22108;DHT22;11220;48.812;9.128;2023-04-27T06:51:51;18.50;74.40
22108;DHT22;11220;48.812;9.128;2023-04-27T06:54:16;18.50;74.30
22108;DHT22;11220;48.812;9.128;2023-04-27T06:56:42;18.50;74.40
22108;DHT22;11220;48.812;9.128;2023-04-27T06:59:08;18.50;74.40
22108;DHT22;11220;48.812;9.128;2023-04-27T07:01:34;18.50;74.40
22108;DHT22;11220;48.812;9.128;2023-04-27T07:04:00;18.50;74.40
22108;DHT22;11220;48.812;9.128;2023-04-27T07:06:25;18.50;74.40
22108;DHT22;11220;48.812;9.128;2023-04-27T07:08:52;18.50;74.40
22108;DHT22;11220;48.812;9.128;2023-04-27T07:11:18;18.50;74.40
22108;DHT22;11220;48.812;9.128;2023-04-27T07:13:44;18.50;75.30
22108;DHT22;11220;48.812;9.128;2023-04-27T07:16:09;18.50;74.40
22108;DHT22;11220;48.812;9.128;2023-04-27T07:18:35;18.50;74.40
22108;DHT22;11220;48.812;9.128;2023-04-27T07:21:01;18.60;74.50
22108;DHT22;11220;48.812;9.128;2023-04-27T07:23:26;18.60;74.40
22108;DHT22;11220;48.812;9.128;2023-04-27T07:25:52;18.60;74.50
22108;DHT22;11220;48.812;9.128;2023-04-27T07:28:18;18.60;74.40
22108;DHT22;11220;48.812;9.128;2023-04-27T07:30:44;18.60;74.50
22108;DHT22;11220;48.812;9.128;2023-04-27T07:33:10;18.60;74.50
22108;DHT22;11220;48.812;9.128;2023-04-27T07:35:36;18.60;74.60
22108;DHT22;11220;48.812;9.128;2023-04-27T07:38:02;18.60;74.60
22108;DHT22;11220;48.812;9.128;2023-04-27T07:40:28;18.60;74.60
22108;DHT22;11220;48.812;9.128;2023-04-27T07:42:54;18.60;75.50
22108;DHT22;11220;48.812;9.128;2023-04-27T07:45:19;18.60;74.60
22108;DHT22;11220;48.812;9.128;2023-04-27T07:47:46;18.60;74.60
22108;DHT22;11220;48.812;9.128;2023-04-27T07:50:12;18.60;74.60
22108;DHT22;11220;48.812;9.128;2023-04-27T07:52:42;18.60;74.60
22108;DHT22;11220;48.812;9.128;2023-04-27T07:55:07;18.60;74.60
22108;DHT22;11220;48.812;9.128;2023-04-27T07:57:34;18.60;74.60
22108;DHT22;11220;48.812;9.128;2023-04-27T08:00:00;18.60;74.60
22108;DHT22;11220;48.812;9.128;2023-04-27T08:02:26;18.60;74.60
22108;DHT22;11220;48.812;9.128;2023-04-27T08:04:55;18.60;74.60
22108;DHT22;11220;48.812;9.128;2023-04-27T08:07:21;18.60;74.60
22108;DHT22;11220;48.812;9.128;2023-04-27T08:09:50;18.70;74.60
22108;DHT22;11220;48.812;9.128;2023-04-27T08:12:16;18.70;74.60
22108;DHT22;11220;48.812;9.128;2023-04-27T08:14:42;18.70;74.60
22108;DHT22;11220;48.812;9.128;2023-04-27T08:17:07;18.60;74.60
22108;DHT22;11220;48.812;9.128;2023-04-27T08:19:33;18.70;74.70
22108;DHT22;11220;48.812;9.128;2023-04-27T08:21:59;18.70;74.90
22108;DHT22;11220;48.812;9.128;2023-04-27T08:24:25;18.70;75.30
22108;DHT22;11220;48.812;9.128;2023-04-27T08:26:50;18.70;75.50
22108;DHT22;11220;48.812;9.128;2023-04-27T08:29:16;18.70;75.70
22108;DHT22;11220;48.812;9.128;2023-04-27T08:31:41;18.70;75.80
22108;DHT22;11220;48.812;9.128;2023-04-27T08:34:07;18.70;75.80
22108;DHT22;11220;48.812;9.128;2023-04-27T08:36:32;18.70;76.00
22108;DHT22;11220;48.812;9.128;2023-04-27T08:38:58;18.70;76.00
22108;DHT22;11220;48.812;9.128;2023-04-27T08:41:24;18.70;76.10
22108;DHT22;11220;48.812;9.128;2023-04-27T08:43:50;18.70;76.10
22108;DHT22;11220;48.812;9.128;2023-04-27T08:46:23;18.70;76.20
22108;DHT22;11220;48.812;9.128;2023-04-27T08:48:49;18.70;76.20
22108;DHT22;11220;48.812;9.128;2023-04-27T08:51:16;18.70;76.30
22108;DHT22;11220;48.812;9.128;2023-04-27T08:53:50;18.70;76.30
22108;DHT22;11220;48.812;9.128;2023-04-27T08:56:19;18.70;76.30
22108;DHT22;11220;48.812;9.128;2023-04-27T08:58:48;18.80;76.30
22108;DHT22;11220;48.812;9.128;2023-04-27T09:01:13;18.80;76.30
22108;DHT22;11220;48.812;9.128;2023-04-27T09:03:39;18.80;77.30
22108;DHT22;11220;48.812;9.128;2023-04-27T09:06:05;18.80;76.30
22108;DHT22;11220;48.812;9.128;2023-04-27T09:08:48;18.80;76.20
22108;DHT22;11220;48.812;9.128;2023-04-27T09:11:14;18.80;76.20
22108;DHT22;11220;48.812;9.128;2023-04-27T09:13:41;18.80;76.10
22108;DHT22;11220;48.812;9.128;2023-04-27T09:16:12;18.80;76.10
22108;DHT22;11220;48.812;9.128;2023-04-27T09:18:42;18.80;76.10
22108;DHT22;11220;48.812;9.128;2023-04-27T09:21:08;18.90;76.10
22108;DHT22;11220;48.812;9.128;2023-04-27T09:23:35;18.80;76.00
22108;DHT22;11220;48.812;9.128;2023-04-27T09:26:03;18.80;76.00
22108;DHT22;11220;48.812;9.128;2023-04-27T09:28:33;19.10;74.70
22108;DHT22;11220;48.812;9.128;2023-04-27T09:31:00;18.80;72.20
22108;DHT22;11220;48.812;9.128;2023-04-27T09:33:28;18.70;72.50
22108;DHT22;11220;48.812;9.128;2023-04-27T09:35:56;18.70;73.30
22108;DHT22;11220;48.812;9.128;2023-04-27T09:38:22;18.70;74.90
22108;DHT22;11220;48.812;9.128;2023-04-27T09:40:49;19.20;74.70
22108;DHT22;11220;48.812;9.128;2023-04-27T09:43:15;18.80;74.50
22108;DHT22;11220;48.812;9.128;2023-04-27T09:45:41;18.80;74.90
22108;DHT22;11220;48.812;9.128;2023-04-27T09:48:08;19.40;75.20
22108;DHT22;11220;48.812;9.128;2023-04-27T09:50:35;18.90;74.70
22108;DHT22;11220;48.812;9.128;2023-04-27T09:53:02;18.90;74.80
22108;DHT22;11220;48.812;9.128;2023-04-27T09:55:35;19.50;75.00
22108;DHT22;11220;48.812;9.128;2023-04-27T10:01:01;18.90;74.60
22108;DHT22;11220;48.812;9.128;2023-04-27T10:03:51;18.90;74.60
22108;DHT22;11220;48.812;9.128;2023-04-27T10:06:44;18.90;74.60
22108;DHT22;11220;48.812;9.128;2023-04-27T10:09:19;18.90;74.50
22108;DHT22;11220;48.812;9.128;2023-04-27T10:11:48;18.90;74.60
22108;DHT22;11220;48.812;9.128;2023-04-27T10:14:19;19.00;74.40
22108;DHT22;11220;48.812;9.128;2023-04-27T10:16:49;18.90;74.20
22108;DHT22;11220;48.812;9.128;2023-04-27T10:19:15;19.00;74.40
22108;DHT22;11220;48.812;9.128;2023-04-27T10:22:01;19.00;74.50
22108;DHT22;11220;48.812;9.128;2023-04-27T10:24:41;18.90;74.10
22108;DHT22;11220;48.812;9.128;2023-04-27T10:27:10;18.90;74.10
22108;DHT22;11220;48.812;9.128;2023-04-27T10:29:41;18.90;74.20
22108;DHT22;11220;48.812;9.128;2023-04-27T10:32:27;18.90;74.30
22108;DHT22;11220;48.812;9.128;2023-04-27T10:35:07;18.90;74.40
22108;DHT22;11220;48.812;9.128;2023-04-27T10:37:41;18.90;74.50
22108;DHT22;11220;48.812;9.128;2023-04-27T10:40:11;18.90;74.50
22108;DHT22;11220;48.812;9.128;2023-04-27T10:42:45;18.90;74.50
22108;DHT22;11220;48.812;9.128;2023-04-27T10:45:11;18.90;74.60
22108;DHT22;11220;48.812;9.128;2023-04-27T10:47:43;19.00;74.60
22108;DHT22;11220;48.812;9.128;2023-04-27T10:50:10;19.00;74.30
22108;DHT22;11220;48.812;9.128;2023-04-27T10:52:40;18.90;72.70
22108;DHT22;11220;48.812;9.128;2023-04-27T10:57:46;18.90;73.50
22108;DHT22;11220;48.812;9.128;2023-04-27T11:00:15;19.00;73.80
22108;DHT22;11220;48.812;9.128;2023-04-27T11:02:41;19.00;73.90
22108;DHT22;11220;48.812;9.128;2023-04-27T11:05:18;19.00;74.00
22108;DHT22;11220;48.812;9.128;2023-04-27T11:07:44;19.10;74.20
22108;DHT22;11220;48.812;9.128;2023-04-27T11:10:14;19.10;74.20
22108;DHT22;11220;48.812;9.128;2023-04-27T11:12:40;19.20;74.30
22108;DHT22;11220;48.812;9.128;2023-04-27T11:15:07;19.20;74.30
22108;DHT22;11220;48.812;9.128;2023-04-27T11:17:33;19.20;74.40
22108;DHT22;11220;48.812;9.128;2023-04-27T11:19:58;19.20;74.40
22108;DHT22;11220;48.812;9.128;2023-04-27T11:22:24;19.20;74.40
22108;DHT22;11220;48.812;9.128;2023-04-27T11:24:51;19.30;74.50
22108;DHT22;11220;48.812;9.128;2023-04-27T11:27:17;19.30;74.50
22108;DHT22;11220;48.812;9.128;2023-04-27T11:29:43;19.30;74.60
22108;DHT22;11220;48.812;9.128;2023-04-27T11:32:18;19.30;74.60
22108;DHT22;11220;48.812;9.128;2023-04-27T11:34:51;19.30;74.70
22108;DHT22;11220;48.812;9.128;2023-04-27T11:37:25;19.30;74.90
22108;DHT22;11220;48.812;9.128;2023-04-27T11:39:51;19.40;75.00
22108;DHT22;11220;48.812;9.128;2023-04-27T11:44:50;19.40;75.20
22108;DHT22;11220;48.812;9.128;2023-04-27T11:47:16;19.40;75.30
22108;DHT22;11220;48.812;9.128;2023-04-27T11:49:47;19.50;75.40
22108;DHT22;11220;48.812;9.128;2023-04-27T11:52:13;19.50;75.30
22108;DHT22;11220;48.812;9.128;2023-04-27T11:54:51;19.50;75.30
22108;DHT22;11220;48.812;9.128;2023-04-27T11:57:24;19.50;75.30
22108;DHT22;11220;48.812;9.128;2023-04-27T11:59:51;19.50;75.30
22108;DHT22;11220;48.812;9.128;2023-04-27T12:02:17;19.50;75.20
22108;DHT22;11220;48.812;9.128;2023-04-27T12:04:43;19.60;75.20
22108;DHT22;11220;48.812;9.128;2023-04-27T12:07:08;19.60;75.10
22108;DHT22;11220;48.812;9.128;2023-04-27T12:09:36;19.60;75.10
22108;DHT22;11220;48.812;9.128;2023-04-27T12:12:02;19.60;75.10
22108;DHT22;11220;48.812;9.128;2023-04-27T12:14:27;19.60;75.10
22108;DHT22;11220;48.812;9.128;2023-04-27T12:16:53;19.60;75.10
22108;DHT22;11220;48.812;9.128;2023-04-27T12:19:18;19.70;75.20
22108;DHT22;11220;48.812;9.128;2023-04-27T12:21:44;19.70;75.30
22108;DHT22;11220;48.812;9.128;2023-04-27T12:24:09;19.70;75.40
22108;DHT22;11220;48.812;9.128;2023-04-27T12:26:35;19.70;75.50
22108;DHT22;11220;48.812;9.128;2023-04-27T12:29:01;19.70;75.60
22108;DHT22;11220;48.812;9.128;2023-04-27T12:31:28;19.80;75.20
22108;DHT22;11220;48.812;9.128;2023-04-27T12:33:53;19.80;74.40
22108;DHT22;11220;48.812;9.128;2023-04-27T12:36:19;19.80;73.90
22108;DHT22;11220;48.812;9.128;2023-04-27T12:38:45;19.80;73.80
22108;DHT22;11220;48.812;9.128;2023-04-27T12:41:10;19.80;73.90
22108;DHT22;11220;48.812;9.128;2023-04-27T12:43:36;19.90;74.10
22108;DHT22;11220;48.812;9.128;2023-04-27T12:46:02;19.90;74.10
22108;DHT22;11220;48.812;9.128;2023-04-27T12:48:28;19.90;73.90
22108;DHT22;11220;48.812;9.128;2023-04-27T12:50:53;19.90;73.90
22108;DHT22;11220;48.812;9.128;2023-04-27T12:53:19;20.00;74.10
22108;DHT22;11220;48.812;9.128;2023-04-27T12:55:46;20.00;74.20
22108;DHT22;11220;48.812;9.128;2023-04-27T12:58:11;20.00;74.30
22108;DHT22;11220;48.812;9.128;2023-04-27T13:00:37;20.00;74.40
22108;DHT22;11220;48.812;9.128;2023-04-27T13:03:02;20.00;74.40
22108;DHT22;11220;48.812;9.128;2023-04-27T13:05:28;20.10;74.50
22108;DHT22;11220;48.812;9.128;2023-04-27T13:07:54;20.00;74.50
22108;DHT22;11220;48.812;9.128;2023-04-27T13:10:19;20.00;74.50
22108;DHT22;11220;48.812;9.128;2023-04-27T13:12:45;20.10;74.60
22108;DHT22;11220;48.812;9.128;2023-04-27T13:15:11;20.00;74.60
22108;DHT22;11220;48.812;9.128;2023-04-27T13:17:36;20.10;74.70
22108;DHT22;11220;48.812;9.128;2023-04-27T13:20:02;20.00;74.70
22108;DHT22;11220;48.812;9.128;2023-04-27T13:22:28;20.10;74.60
22108;DHT22;11220;48.812;9.128;2023-04-27T13:24:53;20.10;74.20
22108;DHT22;11220;48.812;9.128;2023-04-27T13:27:19;20.10;74.00
22108;DHT22;11220;48.812;9.128;2023-04-27T13:29:46;20.20;74.00
22108;DHT22;11220;48.812;9.128;2023-04-27T13:32:13;20.20;74.00
22108;DHT22;11220;48.812;9.128;2023-04-27T13:34:39;20.20;74.10
22108;DHT22;11220;48.812;9.128;2023-04-27T13:37:04;20.20;73.80
22108;DHT22;11220;48.812;9.128;2023-04-27T13:39:31;20.20;73.00
22108;DHT22;11220;48.812;9.128;2023-04-27T13:41:57;20.10;72.70
22108;DHT22;11220;48.812;9.128;2023-04-27T13:44:23;20.10;72.70
22108;DHT22;11220;48.812;9.128;2023-04-27T13:46:49;20.10;72.80
22108;DHT22;11220;48.812;9.128;2023-04-27T13:49:15;20.10;73.00
22108;DHT22;11220;48.812;9.128;2023-04-27T13:51:40;20.20;73.10
22108;DHT22;11220;48.812;9.128;2023-04-27T13:54:06;20.20;71.60
22108;DHT22;11220;48.812;9.128;2023-04-27T13:56:31;20.30;71.40
22108;DHT22;11220;48.812;9.128;2023-04-27T13:58:57;20.30;71.50
22108;DHT22;11220;48.812;9.128;2023-04-27T14:01:22;20.30;71.70
22108;DHT22;11220;48.812;9.128;2023-04-27T14:03:48;20.40;71.80
22108;DHT22;11220;48.812;9.128;2023-04-27T14:06:13;20.40;71.80
22108;DHT22;11220;48.812;9.128;2023-04-27T14:08:39;20.40;71.90
22108;DHT22;11220;48.812;9.128;2023-04-27T14:11:05;20.40;72.00
22108;DHT22;11220;48.812;9.128;2023-04-27T14:13:31;20.40;72.20
22108;DHT22;11220;48.812;9.128;2023-04-27T14:15:57;20.50;72.40
22108;DHT22;11220;48.812;9.128;2023-04-27T14:18:22;20.50;72.40
22108;DHT22;11220;48.812;9.128;2023-04-27T14:20:48;20.50;72.50
22108;DHT22;11220;48.812;9.128;2023-04-27T14:23:13;20.60;72.50
22108;DHT22;11220;48.812;9.128;2023-04-27T14:25:39;20.60;72.30
22108;DHT22;11220;48.812;9.128;2023-04-27T14:28:05;20.70;72.20
22108;DHT22;11220;48.812;9.128;2023-04-27T14:30:31;20.70;71.90
22108;DHT22;11220;48.812;9.128;2023-04-27T14:32:57;20.80;71.80
22108;DHT22;11220;48.812;9.128;2023-04-27T14:35:23;20.80;71.60
22108;DHT22;11220;48.812;9.128;2023-04-27T14:37:49;20.80;71.30
22108;DHT22;11220;48.812;9.128;2023-04-27T14:40:15;20.80;71.20
22108;DHT22;11220;48.812;9.128;2023-04-27T14:42:41;20.70;71.10
22108;DHT22;11220;48.812;9.128;2023-04-27T14:45:07;20.70;71.00
22108;DHT22;11220;48.812;9.128;2023-04-27T14:47:33;20.80;71.00
22108;DHT22;11220;48.812;9.128;2023-04-27T14:49:58;20.70;70.80
22108;DHT22;11220;48.812;9.128;2023-04-27T14:52:24;20.70;70.80
22108;DHT22;11220;48.812;9.128;2023-04-27T14:54:49;20.80;70.80
22108;DHT22;11220;48.812;9.128;2023-04-27T14:57:27;20.80;70.60
22108;DHT22;11220;48.812;9.128;2023-04-27T14:59:53;20.80;70.60
22108;DHT22;11220;48.812;9.128;2023-04-27T15:02:18;20.70;70.30
22108;DHT22;11220;48.812;9.128;2023-04-27T15:04:44;20.70;70.20
22108;DHT22;11220;48.812;9.128;2023-04-27T15:07:10;20.70;70.00
22108;DHT22;11220;48.812;9.128;2023-04-27T15:09:35;20.70;70.00
22108;DHT22;11220;48.812;9.128;2023-04-27T15:12:01;20.70;69.80
22108;DHT22;11220;48.812;9.128;2023-04-27T15:14:28;20.70;69.70
22108;DHT22;11220;48.812;9.128;2023-04-27T15:16:53;20.70;69.50
22108;DHT22;11220;48.812;9.128;2023-04-27T15:19:19;20.80;69.40
22108;DHT22;11220;48.812;9.128;2023-04-27T15:21:44;20.80;69.30
22108;DHT22;11220;48.812;9.128;2023-04-27T15:24:10;20.80;69.20
22108;DHT22;11220;48.812;9.128;2023-04-27T15:26:35;20.90;69.10
22108;DHT22;11220;48.812;9.128;2023-04-27T15:29:01;21.00;68.90
22108;DHT22;11220;48.812;9.128;2023-04-27T15:31:26;21.10;68.70
22108;DHT22;11220;48.812;9.128;2023-04-27T15:33:52;21.10;68.50
22108;DHT22;11220;48.812;9.128;2023-04-27T15:36:18;21.20;68.30